Time;durP1;ratioP1;P1;durP2;ratioP2;P2;SDS_P1;SDS_P2;PMS_P1;PMS_P2;Temp;Humidity;BMP_temperature;BMP_pressure;BME280_temperature;BME280_humidity;BME280_pressure;Samples;Min_cycle;Max_cycle;Signal;HPM_P1;HPM_P2
2022/04/18 00:01:50;;;;;;;66.03;16.33;;;;;;;;;;4955650;29;20135;-45
2022/04/18 00:04:18;;;;;;;56.97;14.68;;;;;;;;;;4956136;29;20031;-46
2022/04/18 00:06:45;;;;;;;72.35;14.70;;;;;;;;;;4954971;29;20035;-47
2022/04/18 00:09:12;;;;;;;56.35;14.90;;;;;;;;;;4938101;29;20027;-47
2022/04/18 00:11:40;;;;;;;56.35;14.35;;;;;;;;;;4956017;29;20069;-46
2022/04/18 00:14:08;;;;;;;52.08;13.93;;;;;;;;;;4955785;29;20034;-46
2022/04/18 00:16:35;;;;;;;57.13;15.50;;;;;;;;;;4955612;29;20043;-47
2022/04/18 00:19:03;;;;;;;58.80;15.05;;;;;;;;;;4955157;29;20070;-47
2022/04/18 00:21:31;;;;;;;52.47;13.90;;;;;;;;;;4955932;29;20935;-47
2022/04/18 00:23:58;;;;;;;49.70;13.95;;;;;;;;;;4956333;29;20031;-46
2022/04/18 00:26:26;;;;;;;48.47;13.35;;;;;;;;;;4956331;29;20122;-46
2022/04/18 00:28:54;;;;;;;49.97;11.82;;;;;;;;;;4956247;29;20087;-46
2022/04/18 00:31:21;;;;;;;43.20;12.45;;;;;;;;;;4956054;29;20125;-46
2022/04/18 00:33:48;;;;;;;46.72;12.27;;;;;;;;;;4956134;29;20070;-47
2022/04/18 00:36:16;;;;;;;41.50;12.70;;;;;;;;;;4939259;29;20031;-46
2022/04/18 00:38:44;;;;;;;44.00;12.30;;;;;;;;;;4956220;29;20027;-47
2022/04/18 00:41:12;;;;;;;44.78;12.15;;;;;;;;;;4955867;29;20031;-46
2022/04/18 00:43:43;;;;;;;40.88;12.02;;;;;;;;;;4938538;29;20595;-46
2022/04/18 00:46:11;;;;;;;50.63;11.85;;;;;;;;;;4955915;29;20035;-46
2022/04/18 00:48:39;;;;;;;44.67;11.82;;;;;;;;;;4955759;28;20098;-47
2022/04/18 00:51:08;;;;;;;46.67;11.15;;;;;;;;;;4955888;29;20031;-47
2022/04/18 00:53:36;;;;;;;39.25;11.00;;;;;;;;;;4955600;29;20050;-46
2022/04/18 00:56:03;;;;;;;35.22;10.35;;;;;;;;;;4955809;29;20034;-46
2022/04/18 00:58:31;;;;;;;38.95;10.35;;;;;;;;;;4955649;29;20135;-46
2022/04/18 01:00:58;;;;;;;42.50;11.82;;;;;;;;;;4955676;29;20031;-47
2022/04/18 01:03:25;;;;;;;33.58;10.18;;;;;;;;;;4955406;29;20035;-47
2022/04/18 01:05:53;;;;;;;38.75;10.57;;;;;;;;;;4955422;29;20058;-47
2022/04/18 01:08:22;;;;;;;38.65;10.57;;;;;;;;;;4937216;29;20027;-47
2022/04/18 01:10:50;;;;;;;34.92;10.38;;;;;;;;;;4954973;29;20031;-49
2022/04/18 01:13:17;;;;;;;30.92;9.18;;;;;;;;;;4955193;29;20493;-47
2022/04/18 01:15:45;;;;;;;36.50;8.98;;;;;;;;;;4955349;29;20103;-48
2022/04/18 01:18:12;;;;;;;41.17;9.55;;;;;;;;;;4955289;29;20027;-48
2022/04/18 01:20:43;;;;;;;32.47;9.45;;;;;;;;;;4955278;29;20398;-47
2022/04/18 01:23:11;;;;;;;34.13;10.07;;;;;;;;;;4976705;23;20067;-34
2022/04/18 01:31:09;;;;;;;32.47;9.27;;;;;;;;;;4974314;28;20081;-33
2022/04/18 01:33:37;;;;;;;29.55;8.77;;;;;;;;;;4974219;28;20038;-35
2022/04/18 01:36:05;;;;;;;21.70;7.78;;;;;;;;;;4974243;28;20039;-35
2022/04/18 01:38:32;;;;;;;27.42;8.80;;;;;;;;;;4974399;28;20400;-34
2022/04/18 01:41:00;;;;;;;30.67;9.05;;;;;;;;;;4974060;28;20026;-35
2022/04/18 01:43:27;;;;;;;26.92;7.93;;;;;;;;;;4956850;28;20039;-33
2022/04/18 01:45:54;;;;;;;28.45;8.18;;;;;;;;;;4979205;28;20058;-32
2022/04/18 01:48:22;;;;;;;29.25;9.05;;;;;;;;;;4993454;28;20487;-36
2022/04/18 01:50:50;;;;;;;22.50;7.75;;;;;;;;;;4993225;28;20341;-32
2022/04/18 01:53:17;;;;;;;23.60;7.68;;;;;;;;;;4993457;28;20164;-34
2022/04/18 01:55:44;;;;;;;21.70;7.20;;;;;;;;;;4993539;28;20484;-37
2022/04/18 01:58:12;;;;;;;24.90;7.88;;;;;;;;;;4975974;28;20023;-37
2022/04/18 02:00:40;;;;;;;26.48;8.45;;;;;;;;;;4993224;28;20050;-35
2022/04/18 02:03:08;;;;;;;27.15;7.78;;;;;;;;;;4993142;28;20042;-35
2022/04/18 02:05:35;;;;;;;21.02;7.38;;;;;;;;;;4993269;28;20030;-37
2022/04/18 02:08:03;;;;;;;28.80;8.73;;;;;;;;;;4982109;28;20027;-34
2022/04/18 02:10:31;;;;;;;19.60;7.22;;;;;;;;;;4973689;28;20097;-35
2022/04/18 02:12:59;;;;;;;21.73;7.40;;;;;;;;;;4974506;28;20109;-38
2022/04/18 02:15:26;;;;;;;18.25;6.68;;;;;;;;;;4973680;28;20066;-35
2022/04/18 02:17:53;;;;;;;22.65;7.40;;;;;;;;;;4973814;28;20030;-35
2022/04/18 02:20:21;;;;;;;22.27;7.47;;;;;;;;;;4985657;28;20065;-34
2022/04/18 02:22:48;;;;;;;21.92;6.93;;;;;;;;;;4973333;28;20378;-36
2022/04/18 02:25:16;;;;;;;17.83;6.72;;;;;;;;;;4973503;28;20030;-38
2022/04/18 02:27:43;;;;;;;23.05;7.35;;;;;;;;;;4981427;28;20065;-37
2022/04/18 02:30:10;;;;;;;18.17;6.70;;;;;;;;;;4993123;28;20391;-36
2022/04/18 02:32:50;;;;;;;20.65;6.82;;;;;;;;;;4993000;28;20071;-35
2022/04/18 02:35:21;;;;;;;21.17;7.25;;;;;;;;;;4993129;28;20069;-38
2022/04/18 02:37:49;;;;;;;16.83;6.80;;;;;;;;;;4993061;28;20412;-36
2022/04/18 02:40:16;;;;;;;20.63;6.70;;;;;;;;;;4992913;28;20465;-34
2022/04/18 02:42:43;;;;;;;18.35;6.32;;;;;;;;;;4992850;28;20034;-36
2022/04/18 02:45:14;;;;;;;17.35;6.30;;;;;;;;;;4992958;28;20023;-35
2022/04/18 02:47:41;;;;;;;19.65;6.80;;;;;;;;;;4993000;28;20030;-36
2022/04/18 02:50:08;;;;;;;20.88;5.93;;;;;;;;;;4993010;28;20031;-34
2022/04/18 02:52:35;;;;;;;16.42;5.28;;;;;;;;;;4992818;28;20033;-37
2022/04/18 02:55:03;;;;;;;21.40;6.72;;;;;;;;;;4992976;28;20050;-37
2022/04/18 02:57:30;;;;;;;15.48;6.28;;;;;;;;;;4992924;28;20477;-38
2022/04/18 02:59:57;;;;;;;15.98;5.45;;;;;;;;;;4992764;28;20392;-34
2022/04/18 03:02:24;;;;;;;17.00;5.93;;;;;;;;;;4992625;28;20062;-34
2022/04/18 03:04:51;;;;;;;16.65;5.93;;;;;;;;;;4992790;28;20097;-37
2022/04/18 03:07:19;;;;;;;13.15;5.70;;;;;;;;;;4992729;28;20030;-34
2022/04/18 03:09:46;;;;;;;16.88;5.82;;;;;;;;;;4992618;28;20045;-36
2022/04/18 03:12:13;;;;;;;19.58;5.80;;;;;;;;;;4992591;28;20033;-35
2022/04/18 03:14:40;;;;;;;16.77;5.97;;;;;;;;;;4992740;28;20029;-34
2022/04/18 03:17:07;;;;;;;13.10;5.43;;;;;;;;;;4992798;28;20037;-35
2022/04/18 03:19:34;;;;;;;12.18;4.95;;;;;;;;;;4992709;28;20038;-37
2022/04/18 03:22:01;;;;;;;13.38;4.88;;;;;;;;;;4974413;28;20612;-36
2022/04/18 03:24:28;;;;;;;15.95;5.65;;;;;;;;;;4970357;28;20046;-35
2022/04/18 03:26:55;;;;;;;14.23;4.90;;;;;;;;;;4968800;28;20113;-37
2022/04/18 03:29:22;;;;;;;12.95;4.78;;;;;;;;;;4972590;28;20027;-34
2022/04/18 03:31:49;;;;;;;11.15;4.43;;;;;;;;;;4974963;28;20031;-35
2022/04/18 03:34:16;;;;;;;13.10;4.32;;;;;;;;;;4976538;28;20085;-35
2022/04/18 03:42:13;;;;;;;12.70;4.90;;;;;;;;;;4976641;28;20049;-36
2022/04/18 03:44:43;;;;;;;10.55;4.60;;;;;;;;;;4968936;28;20034;-37
2022/04/18 03:47:11;;;;;;;9.68;4.60;;;;;;;;;;4976571;28;20070;-36
2022/04/18 03:49:38;;;;;;;10.85;4.68;;;;;;;;;;4976576;28;20041;-35
2022/04/18 03:52:05;;;;;;;11.20;4.47;;;;;;;;;;4976862;28;20035;-34
2022/04/18 03:54:32;;;;;;;13.52;4.80;;;;;;;;;;4977348;28;20101;-35
2022/04/18 03:56:59;;;;;;;11.82;4.22;;;;;;;;;;4977280;28;20031;-35
2022/04/18 03:59:25;;;;;;;12.25;4.65;;;;;;;;;;4976452;28;20235;-35
2022/04/18 04:01:52;;;;;;;11.63;4.28;;;;;;;;;;4969756;28;20034;-41
2022/04/18 04:04:19;;;;;;;8.75;3.80;;;;;;;;;;4969686;28;20061;-38
2022/04/18 04:06:47;;;;;;;8.77;4.28;;;;;;;;;;4972226;28;20058;-36
2022/04/18 04:09:13;;;;;;;8.52;3.60;;;;;;;;;;4972697;28;20093;-35
2022/04/18 04:11:40;;;;;;;12.00;4.18;;;;;;;;;;4967105;28;20045;-34
2022/04/18 04:14:07;;;;;;;12.32;3.90;;;;;;;;;;4975373;28;20043;-35
2022/04/18 04:16:34;;;;;;;10.75;4.40;;;;;;;;;;4974474;28;20397;-36
2022/04/18 04:19:01;;;;;;;10.65;4.15;;;;;;;;;;4975861;28;20019;-34
2022/04/18 04:21:28;;;;;;;10.77;4.00;;;;;;;;;;4974364;28;20035;-34
2022/04/18 04:23:55;;;;;;;10.00;4.05;;;;;;;;;;4975438;28;20183;-38
2022/04/18 04:26:22;;;;;;;11.25;4.07;;;;;;;;;;4975639;28;20054;-35
2022/04/18 04:28:49;;;;;;;8.45;3.95;;;;;;;;;;4975722;28;20034;-35
2022/04/18 04:31:16;;;;;;;9.73;3.50;;;;;;;;;;4974278;28;20496;-34
2022/04/18 04:33:43;;;;;;;9.45;4.03;;;;;;;;;;4975547;28;20038;-34
2022/04/18 04:36:12;;;;;;;8.80;3.60;;;;;;;;;;4974658;28;20030;-35
2022/04/18 04:38:39;;;;;;;8.77;3.70;;;;;;;;;;4975110;28;20034;-36
2022/04/18 04:41:06;;;;;;;10.45;3.33;;;;;;;;;;4974800;28;20031;-36
2022/04/18 04:43:33;;;;;;;9.18;3.65;;;;;;;;;;4975012;28;20045;-34
2022/04/18 04:46:00;;;;;;;9.75;3.72;;;;;;;;;;4975087;28;20513;-37
2022/04/18 04:48:27;;;;;;;10.32;3.85;;;;;;;;;;4975072;28;20043;-36
2022/04/18 04:50:54;;;;;;;8.35;3.58;;;;;;;;;;4975180;28;20030;-34
2022/04/18 04:53:21;;;;;;;8.55;3.75;;;;;;;;;;4975107;28;20031;-35
2022/04/18 04:55:48;;;;;;;7.15;3.40;;;;;;;;;;4975161;28;20477;-35
2022/04/18 04:58:15;;;;;;;8.65;3.45;;;;;;;;;;4975188;28;20027;-36
2022/04/18 05:00:42;;;;;;;6.22;2.70;;;;;;;;;;4974907;28;20454;-39
2022/04/18 05:03:09;;;;;;;8.23;3.28;;;;;;;;;;4974725;28;20444;-36
2022/04/18 05:05:36;;;;;;;7.28;3.20;;;;;;;;;;4974992;28;20031;-37
2022/04/18 05:08:03;;;;;;;9.25;3.47;;;;;;;;;;4974917;28;20117;-34
2022/04/18 05:10:30;;;;;;;8.77;3.40;;;;;;;;;;4973614;28;20031;-35
2022/04/18 05:12:57;;;;;;;8.57;4.00;;;;;;;;;;4974839;28;20113;-39
2022/04/18 05:15:25;;;;;;;5.10;3.05;;;;;;;;;;4974850;28;20029;-34
2022/04/18 05:17:52;;;;;;;10.32;2.95;;;;;;;;;;4974718;28;20045;-34
2022/04/18 05:20:19;;;;;;;10.15;3.10;;;;;;;;;;4974747;28;20034;-35
2022/04/18 05:22:46;;;;;;;9.30;3.45;;;;;;;;;;4974373;28;20078;-36
2022/04/18 05:25:13;;;;;;;8.93;3.40;;;;;;;;;;4974620;28;20027;-36
2022/04/18 05:27:40;;;;;;;6.18;3.00;;;;;;;;;;4974587;28;20025;-35
2022/04/18 05:30:07;;;;;;;5.40;3.25;;;;;;;;;;4974609;28;20227;-36
2022/04/18 05:32:34;;;;;;;7.13;2.90;;;;;;;;;;4974408;28;20117;-36
2022/04/18 05:35:01;;;;;;;8.20;2.88;;;;;;;;;;4974784;28;20480;-34
2022/04/18 05:37:28;;;;;;;6.63;3.38;;;;;;;;;;4974347;28;20049;-35
2022/04/18 05:39:55;;;;;;;7.68;3.03;;;;;;;;;;4974302;28;20023;-37
2022/04/18 05:42:23;;;;;;;6.05;2.67;;;;;;;;;;4974141;28;20507;-34
2022/04/18 05:44:50;;;;;;;8.20;3.35;;;;;;;;;;4974332;28;20037;-37
2022/04/18 05:47:17;;;;;;;8.05;3.08;;;;;;;;;;4974178;28;20074;-37
2022/04/18 05:49:44;;;;;;;6.97;3.10;;;;;;;;;;4974207;28;20027;-36
2022/04/18 05:52:14;;;;;;;6.60;2.67;;;;;;;;;;4974787;28;20119;-37
2022/04/18 05:54:41;;;;;;;9.32;3.40;;;;;;;;;;4974832;28;20358;-36
2022/04/18 05:57:08;;;;;;;6.18;2.50;;;;;;;;;;4974372;28;20035;-34
2022/04/18 05:59:35;;;;;;;6.18;2.10;;;;;;;;;;4974358;28;20062;-35
2022/04/18 06:02:02;;;;;;;4.88;2.20;;;;;;;;;;4974399;28;20037;-39
2022/04/18 06:04:29;;;;;;;5.65;2.38;;;;;;;;;;4974235;28;20035;-37
2022/04/18 06:06:56;;;;;;;5.57;2.85;;;;;;;;;;4974243;28;20033;-38
2022/04/18 06:09:23;;;;;;;4.80;2.30;;;;;;;;;;4974251;28;20078;-35
2022/04/18 06:11:49;;;;;;;5.78;2.58;;;;;;;;;;4974048;28;20078;-35
2022/04/18 06:14:16;;;;;;;7.85;2.75;;;;;;;;;;4974030;28;20031;-35
2022/04/18 06:16:43;;;;;;;6.53;3.10;;;;;;;;;;4974144;28;20026;-34
2022/04/18 06:19:10;;;;;;;5.53;2.47;;;;;;;;;;4973922;28;20552;-34
2022/04/18 06:21:37;;;;;;;4.97;2.15;;;;;;;;;;4973843;28;20031;-36
2022/04/18 06:24:04;;;;;;;5.18;2.28;;;;;;;;;;4972646;28;20052;-35
2022/04/18 06:26:31;;;;;;;5.75;2.50;;;;;;;;;;4973883;28;20019;-34
2022/04/18 06:28:58;;;;;;;6.05;2.60;;;;;;;;;;4973893;28;20102;-36
2022/04/18 06:31:25;;;;;;;5.70;2.13;;;;;;;;;;4973802;28;20051;-35
2022/04/18 06:33:52;;;;;;;6.38;2.13;;;;;;;;;;4973957;28;20023;-37
2022/04/18 06:36:19;;;;;;;4.28;1.88;;;;;;;;;;4973809;28;20464;-34
2022/04/18 06:38:47;;;;;;;5.10;2.47;;;;;;;;;;4973766;28;20035;-34
2022/04/18 06:41:14;;;;;;;5.10;2.45;;;;;;;;;;4973641;28;20030;-34
2022/04/18 06:43:41;;;;;;;4.13;2.50;;;;;;;;;;4973813;28;20035;-34
2022/04/18 06:46:08;;;;;;;5.28;2.42;;;;;;;;;;4973691;28;20035;-34
2022/04/18 06:48:35;;;;;;;4.82;2.20;;;;;;;;;;4973691;28;20106;-34
2022/04/18 06:51:02;;;;;;;4.40;2.30;;;;;;;;;;4973492;28;20031;-38
2022/04/18 06:53:29;;;;;;;5.70;2.45;;;;;;;;;;4973686;28;20026;-34
2022/04/18 06:58:41;;;;;;;7.95;2.30;;;;;;;;;;4973704;28;20096;-35
2022/04/18 07:01:08;;;;;;;5.60;2.60;;;;;;;;;;4973593;28;20035;-35
2022/04/18 07:03:36;;;;;;;3.42;1.77;;;;;;;;;;4973577;28;20042;-36
2022/04/18 07:06:03;;;;;;;3.60;1.90;;;;;;;;;;4973848;28;20165;-35
2022/04/18 07:11:42;;;;;;;7.07;2.22;;;;;;;;;;4976632;28;20090;-35
2022/04/18 07:14:09;;;;;;;4.47;1.88;;;;;;;;;;4976320;28;20118;-34
2022/04/18 07:16:36;;;;;;;5.85;1.98;;;;;;;;;;4976719;28;20106;-35
2022/04/18 07:19:03;;;;;;;4.25;2.17;;;;;;;;;;4976900;28;20484;-36
2022/04/18 07:21:31;;;;;;;6.22;2.05;;;;;;;;;;4976598;28;20034;-37
2022/04/18 07:23:57;;;;;;;3.83;1.90;;;;;;;;;;4976553;28;20082;-35
2022/04/18 07:26:24;;;;;;;5.30;2.08;;;;;;;;;;4976676;28;20034;-33
2022/04/18 07:28:51;;;;;;;5.00;2.10;;;;;;;;;;4976774;28;20031;-36
2022/04/18 07:31:18;;;;;;;8.70;2.10;;;;;;;;;;4976644;28;20109;-34
2022/04/18 07:33:45;;;;;;;3.53;1.90;;;;;;;;;;4976697;28;20030;-34
2022/04/18 07:36:12;;;;;;;4.18;2.00;;;;;;;;;;4976533;28;20031;-36
2022/04/18 07:38:52;;;;;;;5.28;2.33;;;;;;;;;;4976592;28;20030;-37
2022/04/18 07:41:20;;;;;;;4.15;1.95;;;;;;;;;;4976380;28;20022;-34
2022/04/18 07:43:47;;;;;;;3.17;1.95;;;;;;;;;;4975205;28;20490;-36
2022/04/18 07:46:18;;;;;;;5.03;1.75;;;;;;;;;;4976395;28;20484;-35
2022/04/18 07:48:46;;;;;;;4.97;2.05;;;;;;;;;;4976480;28;20027;-36
2022/04/18 07:51:34;;;;;;;5.20;2.00;;;;;;;;;;4976315;28;20027;-35
2022/04/18 07:54:01;;;;;;;5.22;2.17;;;;;;;;;;4976191;28;20030;-34
2022/04/18 07:56:29;;;;;;;3.72;1.98;;;;;;;;;;4976087;28;20470;-34
2022/04/18 07:58:56;;;;;;;4.85;2.30;;;;;;;;;;4976230;28;20027;-36
2022/04/18 08:01:23;;;;;;;4.78;2.45;;;;;;;;;;4975995;28;20022;-35
2022/04/18 08:03:50;;;;;;;3.72;1.48;;;;;;;;;;4976417;28;20037;-34
2022/04/18 08:06:17;;;;;;;3.97;1.88;;;;;;;;;;4976243;28;20162;-38
2022/04/18 08:08:45;;;;;;;4.03;1.90;;;;;;;;;;4975950;28;20023;-34
2022/04/18 08:11:14;;;;;;;3.30;1.95;;;;;;;;;;4975748;28;20477;-35
2022/04/18 08:13:44;;;;;;;4.00;1.90;;;;;;;;;;4975902;28;20047;-34
2022/04/18 08:16:12;;;;;;;5.25;1.88;;;;;;;;;;4975320;28;20396;-35
2022/04/18 08:18:42;;;;;;;4.85;2.08;;;;;;;;;;4975800;28;20027;-35
2022/04/18 08:21:09;;;;;;;4.20;1.67;;;;;;;;;;4975590;28;20045;-34
2022/04/18 08:23:36;;;;;;;4.60;2.10;;;;;;;;;;4975414;28;20050;-35
2022/04/18 08:26:04;;;;;;;4.20;1.58;;;;;;;;;;4975689;28;20077;-35
2022/04/18 08:28:32;;;;;;;3.33;1.77;;;;;;;;;;4975561;28;20115;-37
2022/04/18 08:31:00;;;;;;;3.15;1.88;;;;;;;;;;4975518;28;20452;-36
2022/04/18 08:33:29;;;;;;;3.47;1.80;;;;;;;;;;4975350;28;20034;-34
2022/04/18 08:35:56;;;;;;;3.97;1.63;;;;;;;;;;4975437;28;20046;-34
2022/04/18 08:38:23;;;;;;;5.53;2.00;;;;;;;;;;4975519;28;20057;-35
2022/04/18 08:40:51;;;;;;;5.07;1.63;;;;;;;;;;4975281;28;20481;-34
2022/04/18 08:43:18;;;;;;;3.30;1.73;;;;;;;;;;4975265;28;20122;-35
2022/04/18 08:45:47;;;;;;;4.20;1.90;;;;;;;;;;4975430;28;20027;-35
2022/04/18 08:53:45;;;;;;;3.38;1.73;;;;;;;;;;4975551;28;20412;-34
2022/04/18 08:56:12;;;;;;;3.67;1.83;;;;;;;;;;4975080;28;20026;-34
2022/04/18 08:58:40;;;;;;;5.60;2.00;;;;;;;;;;4974593;28;20030;-35
2022/04/18 09:01:08;;;;;;;6.00;1.88;;;;;;;;;;4974487;28;20105;-35
2022/04/18 09:03:35;;;;;;;2.97;1.73;;;;;;;;;;4974729;28;20034;-34
2022/04/18 09:06:06;;;;;;;4.38;1.92;;;;;;;;;;4974284;28;20031;-35
2022/04/18 09:08:42;;;;;;;4.88;1.92;;;;;;;;;;4974519;28;20023;-36
2022/04/18 09:11:09;;;;;;;4.93;1.40;;;;;;;;;;4974788;28;20023;-39
2022/04/18 09:13:43;;;;;;;3.53;1.55;;;;;;;;;;4974858;28;20485;-34
2022/04/18 09:16:16;;;;;;;4.00;1.50;;;;;;;;;;4973507;28;20089;-35
2022/04/18 09:18:43;;;;;;;3.15;1.45;;;;;;;;;;4974683;28;20452;-34
2022/04/18 09:21:10;;;;;;;4.05;2.00;;;;;;;;;;4974701;28;20496;-35
2022/04/18 09:23:38;;;;;;;3.17;1.20;;;;;;;;;;4974358;28;20054;-33
2022/04/18 09:26:06;;;;;;;4.45;2.13;;;;;;;;;;4974595;28;20489;-36
2022/04/18 09:28:35;;;;;;;2.75;1.33;;;;;;;;;;4973494;28;20063;-35
2022/04/18 09:31:04;;;;;;;6.13;1.92;;;;;;;;;;4974366;28;20026;-36
2022/04/18 09:33:32;;;;;;;4.55;1.42;;;;;;;;;;4974531;28;20035;-34
2022/04/18 09:36:06;;;;;;;2.58;1.38;;;;;;;;;;4974509;28;20174;-36
2022/04/18 09:38:37;;;;;;;3.03;1.70;;;;;;;;;;4974367;28;20027;-39
2022/04/18 09:41:04;;;;;;;2.25;1.20;;;;;;;;;;4974172;28;20031;-34
2022/04/18 09:43:38;;;;;;;3.80;1.50;;;;;;;;;;4974231;28;20102;-35
2022/04/18 09:46:05;;;;;;;2.15;1.58;;;;;;;;;;4974367;28;20591;-35
2022/04/18 09:48:35;;;;;;;3.30;1.63;;;;;;;;;;4972440;28;20030;-36
2022/04/18 09:51:08;;;;;;;3.75;1.90;;;;;;;;;;4970778;28;20030;-35
2022/04/18 09:53:35;;;;;;;5.68;1.80;;;;;;;;;;4969398;28;20587;-34
2022/04/18 09:56:03;;;;;;;2.38;1.58;;;;;;;;;;4971253;28;20046;-33
2022/04/18 09:58:32;;;;;;;2.80;1.50;;;;;;;;;;4968363;28;20050;-34
2022/04/18 10:01:00;;;;;;;4.22;1.35;;;;;;;;;;4973815;28;20033;-35
2022/04/18 10:03:28;;;;;;;3.65;1.30;;;;;;;;;;4969898;28;20077;-36
2022/04/18 10:05:55;;;;;;;2.83;1.67;;;;;;;;;;4973546;28;20023;-37
2022/04/18 10:08:22;;;;;;;4.53;2.00;;;;;;;;;;4972915;28;20039;-34
2022/04/18 10:10:50;;;;;;;3.85;1.30;;;;;;;;;;4972811;28;20034;-33
2022/04/18 10:13:17;;;;;;;2.00;1.13;;;;;;;;;;4973163;28;20034;-35
2022/04/18 10:15:44;;;;;;;5.80;1.70;;;;;;;;;;4972920;28;20509;-35
2022/04/18 10:18:11;;;;;;;2.63;1.52;;;;;;;;;;4972655;28;20386;-40
2022/04/18 10:20:47;;;;;;;4.05;1.92;;;;;;;;;;4966557;28;20069;-33
2022/04/18 10:23:17;;;;;;;2.28;1.30;;;;;;;;;;4972779;28;20555;-35
2022/04/18 10:25:55;;;;;;;3.63;1.50;;;;;;;;;;4973094;28;20069;-34
2022/04/18 10:28:25;;;;;;;2.45;1.27;;;;;;;;;;4974492;28;20031;-33
2022/04/18 10:30:57;;;;;;;3.80;1.50;;;;;;;;;;4992962;28;20468;-33
2022/04/18 10:33:24;;;;;;;3.20;1.88;;;;;;;;;;4993037;28;20121;-33
2022/04/18 10:35:55;;;;;;;2.08;1.58;;;;;;;;;;4992822;28;20488;-37
2022/04/18 10:38:26;;;;;;;2.97;1.42;;;;;;;;;;4992940;28;20102;-33
2022/04/18 10:43:59;;;;;;;3.53;1.33;;;;;;;;;;4992808;28;20136;-34
2022/04/18 10:46:26;;;;;;;3.42;1.50;;;;;;;;;;4992843;28;20034;-34
2022/04/18 10:48:57;;;;;;;2.75;1.38;;;;;;;;;;4992884;28;20031;-34
2022/04/18 10:51:28;;;;;;;2.80;1.40;;;;;;;;;;4992774;28;20034;-35
2022/04/18 10:54:09;;;;;;;2.08;1.40;;;;;;;;;;4992879;28;20475;-34
2022/04/18 10:56:54;;;;;;;3.17;1.77;;;;;;;;;;4992671;28;20037;-34
2022/04/18 10:59:23;;;;;;;2.83;1.65;;;;;;;;;;4975153;28;20576;-34
2022/04/18 11:01:50;;;;;;;2.67;1.33;;;;;;;;;;4992616;28;20081;-34
2022/04/18 11:04:18;;;;;;;2.35;1.10;;;;;;;;;;4992782;28;20031;-33
2022/04/18 11:06:46;;;;;;;2.75;1.25;;;;;;;;;;4992641;28;20038;-33
2022/04/18 11:09:16;;;;;;;2.47;1.33;;;;;;;;;;4992667;28;20030;-36
2022/04/18 11:12:08;;;;;;;3.15;1.50;;;;;;;;;;4992405;28;20027;-36
2022/04/18 11:14:51;;;;;;;4.03;1.63;;;;;;;;;;4992543;28;20061;-34
2022/04/18 11:17:31;;;;;;;3.53;1.40;;;;;;;;;;4992395;28;20045;-34
2022/04/18 11:20:18;;;;;;;2.42;1.92;;;;;;;;;;4992629;28;20022;-37
2022/04/18 11:23:05;;;;;;;3.67;1.67;;;;;;;;;;4992218;28;20073;-33
2022/04/18 11:25:49;;;;;;;3.67;1.30;;;;;;;;;;4991601;28;20519;-33
2022/04/18 11:28:17;;;;;;;3.10;1.35;;;;;;;;;;4992286;28;20041;-33
2022/04/18 11:30:44;;;;;;;4.45;1.27;;;;;;;;;;4992427;28;20054;-34
2022/04/18 11:33:11;;;;;;;1.85;1.42;;;;;;;;;;4992476;28;20049;-34
2022/04/18 11:35:38;;;;;;;3.40;1.55;;;;;;;;;;4992434;28;20026;-35
2022/04/18 11:38:08;;;;;;;2.65;1.40;;;;;;;;;;4992382;28;20019;-33
2022/04/18 11:40:39;;;;;;;2.10;1.20;;;;;;;;;;4992302;28;20033;-35
2022/04/18 11:43:13;;;;;;;4.45;1.40;;;;;;;;;;4992168;28;20038;-35
2022/04/18 11:45:40;;;;;;;3.30;1.30;;;;;;;;;;4992277;28;20054;-35
2022/04/18 11:48:07;;;;;;;2.97;1.55;;;;;;;;;;4992329;28;20026;-35
2022/04/18 11:50:37;;;;;;;2.55;1.23;;;;;;;;;;4992168;28;20097;-34
2022/04/18 11:53:06;;;;;;;3.28;1.63;;;;;;;;;;4994737;28;20073;-34
2022/04/18 11:55:33;;;;;;;4.93;1.65;;;;;;;;;;4995529;28;20149;-34
2022/04/18 11:58:00;;;;;;;4.00;1.40;;;;;;;;;;4995591;28;20065;-36
2022/04/18 12:08:47;;;;;;;3.42;1.50;;;;;;;;;;4995819;28;20041;-33
2022/04/18 12:11:14;;;;;;;4.07;1.80;;;;;;;;;;4995403;28;20026;-34
2022/04/18 12:13:45;;;;;;;5.57;1.65;;;;;;;;;;4995228;28;20038;-33
2022/04/18 12:16:12;;;;;;;3.10;1.63;;;;;;;;;;4995213;28;20030;-34
2022/04/18 12:18:39;;;;;;;3.95;1.45;;;;;;;;;;4995275;28;20388;-34
2022/04/18 12:21:06;;;;;;;4.13;1.30;;;;;;;;;;4995185;28;20037;-35
2022/04/18 12:23:33;;;;;;;6.60;1.55;;;;;;;;;;4994855;28;20050;-36
2022/04/18 12:26:01;;;;;;;6.53;1.85;;;;;;;;;;4995299;28;20034;-34
2022/04/18 12:28:29;;;;;;;7.30;1.30;;;;;;;;;;4995042;28;20061;-34
2022/04/18 12:30:57;;;;;;;4.72;1.27;;;;;;;;;;4995026;28;20062;-34
2022/04/18 12:33:25;;;;;;;3.83;1.48;;;;;;;;;;4995048;28;20042;-34
2022/04/18 12:35:56;;;;;;;4.25;1.75;;;;;;;;;;4995149;28;20395;-36
2022/04/18 12:38:36;;;;;;;3.20;1.40;;;;;;;;;;4991734;28;20069;-36
2022/04/18 12:41:04;;;;;;;5.05;1.30;;;;;;;;;;4975492;28;20077;-34
2022/04/18 12:43:35;;;;;;;4.78;1.40;;;;;;;;;;4982592;28;20472;-33
2022/04/18 12:46:10;;;;;;;6.82;1.15;;;;;;;;;;4990129;28;20049;-35
2022/04/18 12:48:40;;;;;;;7.65;1.40;;;;;;;;;;4982889;28;20027;-34
2022/04/18 12:51:08;;;;;;;5.60;1.40;;;;;;;;;;4990357;28;20018;-33
2022/04/18 12:53:48;;;;;;;8.98;1.65;;;;;;;;;;4979951;28;20082;-34
2022/04/18 12:56:22;;;;;;;6.30;1.30;;;;;;;;;;4965303;28;20046;-37
2022/04/18 12:58:50;;;;;;;4.47;1.10;;;;;;;;;;4973791;28;20146;-33
2022/04/18 13:01:24;;;;;;;11.82;1.42;;;;;;;;;;4976672;28;20033;-35
2022/04/18 13:03:52;;;;;;;5.03;1.15;;;;;;;;;;4954438;28;20087;-36
2022/04/18 13:06:26;;;;;;;4.32;1.30;;;;;;;;;;4964167;28;20540;-35
2022/04/18 13:09:05;;;;;;;8.65;1.40;;;;;;;;;;4974491;28;20026;-36
2022/04/18 13:11:38;;;;;;;6.07;1.30;;;;;;;;;;4974498;28;20023;-39
2022/04/18 13:14:05;;;;;;;10.43;1.40;;;;;;;;;;4977975;28;20027;-34
2022/04/18 13:16:32;;;;;;;3.88;1.35;;;;;;;;;;4975562;28;20477;-38
2022/04/18 13:19:00;;;;;;;6.72;1.15;;;;;;;;;;4993879;28;20030;-35
2022/04/18 13:21:28;;;;;;;2.85;1.30;;;;;;;;;;4992825;28;20030;-36
2022/04/18 13:23:56;;;;;;;10.48;1.55;;;;;;;;;;4993175;28;20508;-41
2022/04/18 13:26:23;;;;;;;5.93;1.30;;;;;;;;;;4992795;28;20029;-41
2022/04/18 13:28:49;;;;;;;4.00;1.20;;;;;;;;;;4993664;28;20077;-35
2022/04/18 13:31:17;;;;;;;9.38;1.75;;;;;;;;;;4993249;28;20115;-38
2022/04/18 13:33:45;;;;;;;5.95;1.45;;;;;;;;;;4969055;28;20038;-36
2022/04/18 13:36:30;;;;;;;5.25;2.03;;;;;;;;;;4973291;28;20029;-34
2022/04/18 13:38:58;;;;;;;4.38;1.50;;;;;;;;;;4974234;28;20031;-33
2022/04/18 13:41:25;;;;;;;9.43;1.50;;;;;;;;;;4974310;28;20038;-34
2022/04/18 13:43:52;;;;;;;7.70;1.15;;;;;;;;;;4972536;28;20129;-34
2022/04/18 13:46:19;;;;;;;4.93;1.27;;;;;;;;;;4973679;28;20026;-33
2022/04/18 13:48:48;;;;;;;5.28;1.00;;;;;;;;;;4973807;28;20049;-36
2022/04/18 13:51:23;;;;;;;8.45;1.38;;;;;;;;;;4973880;28;20051;-36
2022/04/18 13:53:52;;;;;;;8.00;1.33;;;;;;;;;;4974254;28;20043;-34
2022/04/18 13:56:19;;;;;;;9.05;1.40;;;;;;;;;;4973712;28;20039;-34
2022/04/18 13:58:47;;;;;;;7.00;1.35;;;;;;;;;;4973164;28;20035;-32
2022/04/18 14:01:14;;;;;;;7.35;1.65;;;;;;;;;;4973821;28;20035;-36
2022/04/18 14:03:42;;;;;;;10.43;1.27;;;;;;;;;;4973511;28;20050;-34
2022/04/18 14:06:09;;;;;;;11.32;1.63;;;;;;;;;;4973533;28;20043;-41
2022/04/18 14:08:40;;;;;;;13.75;1.70;;;;;;;;;;4968934;28;20035;-43
2022/04/18 14:11:08;;;;;;;13.18;2.05;;;;;;;;;;4971836;28;20066;-43
2022/04/18 14:13:38;;;;;;;12.13;1.67;;;;;;;;;;4972358;28;20047;-44
2022/04/18 14:21:36;;;;;;;16.52;2.25;;;;;;;;;;4973327;28;20109;-44
2022/04/18 14:24:04;;;;;;;13.52;2.20;;;;;;;;;;4972766;28;20437;-44
2022/04/18 14:26:30;;;;;;;15.10;2.85;;;;;;;;;;4972525;28;20031;-43
2022/04/18 14:29:00;;;;;;;16.70;2.75;;;;;;;;;;4972343;28;20030;-35
2022/04/18 14:31:29;;;;;;;15.57;2.20;;;;;;;;;;4972225;28;20051;-42
2022/04/18 14:33:56;;;;;;;16.27;2.08;;;;;;;;;;4972778;28;20034;-39
2022/04/18 14:36:23;;;;;;;20.05;2.28;;;;;;;;;;4972384;28;20420;-38
2022/04/18 14:38:50;;;;;;;22.92;2.30;;;;;;;;;;4972737;28;20031;-40
2022/04/18 14:41:17;;;;;;;16.50;2.17;;;;;;;;;;4971504;28;20485;-42
2022/04/18 14:43:44;;;;;;;17.55;2.60;;;;;;;;;;4972826;28;20374;-38
2022/04/18 14:46:11;;;;;;;15.57;2.13;;;;;;;;;;4972515;28;20105;-38
2022/04/18 14:48:39;;;;;;;24.02;3.08;;;;;;;;;;4954809;28;20498;-43
2022/04/18 14:51:06;;;;;;;16.75;2.58;;;;;;;;;;4971144;28;20034;-35
2022/04/18 14:53:33;;;;;;;25.48;2.80;;;;;;;;;;4955099;28;20039;-36
2022/04/18 14:56:00;;;;;;;34.38;3.22;;;;;;;;;;4971890;28;20039;-43
2022/04/18 14:58:27;;;;;;;23.92;3.30;;;;;;;;;;4972183;28;20027;-43
2022/04/18 15:00:54;;;;;;;35.97;3.28;;;;;;;;;;4971937;28;20370;-44
2022/04/18 15:03:21;;;;;;;17.77;2.78;;;;;;;;;;4971939;28;20046;-44
2022/04/18 15:05:48;;;;;;;28.23;3.85;;;;;;;;;;4972355;28;20110;-34
2022/04/18 15:08:15;;;;;;;36.95;3.47;;;;;;;;;;4972162;28;20035;-37
2022/04/18 15:10:42;;;;;;;29.50;3.63;;;;;;;;;;4971772;28;20698;-39
2022/04/18 15:13:09;;;;;;;34.28;3.63;;;;;;;;;;4970769;28;20061;-34
2022/04/18 15:15:36;;;;;;;36.78;3.13;;;;;;;;;;4971828;28;20030;-35
2022/04/18 15:18:03;;;;;;;31.38;3.97;;;;;;;;;;4971181;28;20106;-37
2022/04/18 15:20:30;;;;;;;34.30;4.18;;;;;;;;;;4971497;28;20113;-35
2022/04/18 15:22:57;;;;;;;35.13;4.18;;;;;;;;;;4970791;28;20520;-34